Time;durP1;ratioP1;P1;durP2;ratioP2;P2;SDS_P1;SDS_P2;PMS_P1;PMS_P2;Temp;Humidity;BMP_temperature;BMP_pressure;BME280_temperature;BME280_humidity;BME280_pressure;Samples;Min_cycle;Max_cycle;Signal;HPM_P1;HPM_P2
2021/08/22 00:02:02;;;;;;;1.43;1.33;;;;;;;20.94;62.58;98828.03;5070858;28;41871;-79
2021/08/22 00:04:31;;;;;;;1.43;1.10;;;;;;;20.93;62.51;98829.03;5069786;28;42170;-79
2021/08/22 00:06:58;;;;;;;1.43;1.33;;;;;;;20.90;62.64;98837.41;5105282;28;38920;-79
2021/08/22 00:09:26;;;;;;;1.30;1.20;;;;;;;20.87;62.93;98839.59;5088402;28;41586;-78
2021/08/22 00:11:53;;;;;;;1.47;1.20;;;;;;;20.82;64.11;98837.38;5094010;28;43078;-78
2021/08/22 00:14:22;;;;;;;1.37;1.27;;;;;;;20.70;64.84;98830.59;5067691;28;42311;-78
2021/08/22 00:16:50;;;;;;;1.80;1.53;;;;;;;20.71;65.22;98837.66;5068158;28;40996;-79
2021/08/22 00:19:18;;;;;;;1.87;1.60;;;;;;;20.68;64.80;98832.59;5051018;28;41745;-78
2021/08/22 00:21:45;;;;;;;1.80;1.70;;;;;;;20.56;65.35;98833.88;5068372;28;43006;-78
2021/08/22 00:24:13;;;;;;;1.70;1.60;;;;;;;20.59;65.33;98841.63;5050555;28;41120;-78
2021/08/22 00:26:40;;;;;;;2.10;1.77;;;;;;;20.62;65.15;98849.41;5055741;28;40044;-78
2021/08/22 00:29:08;;;;;;;2.70;1.70;;;;;;;20.63;65.79;98851.09;5087685;28;42567;-78
2021/08/22 00:31:37;;;;;;;1.50;1.40;;;;;;;20.59;65.45;98855.94;5107570;28;42733;-78
2021/08/22 00:34:04;;;;;;;1.63;1.53;;;;;;;20.62;65.40;98852.09;5073431;28;41162;-79
2021/08/22 00:36:31;;;;;;;1.50;1.40;;;;;;;20.62;65.87;98839.47;5075891;28;40863;-78
2021/08/22 00:38:59;;;;;;;1.37;1.27;;;;;;;20.65;65.71;98844.53;5070357;28;43225;-78
2021/08/22 00:41:29;;;;;;;1.40;1.27;;;;;;;20.59;65.56;98836.25;5072130;28;43851;-79
2021/08/22 00:43:57;;;;;;;1.97;1.57;;;;;;;20.65;65.11;98857.13;5073434;28;42127;-78
2021/08/22 00:46:24;;;;;;;1.50;1.27;;;;;;;20.62;64.90;98854.78;5074252;28;38858;-78
2021/08/22 00:48:53;;;;;;;1.30;1.20;;;;;;;20.61;65.31;98845.03;5090863;28;42222;-79
2021/08/22 00:51:21;;;;;;;1.90;1.30;;;;;;;20.60;65.19;98873.78;5080132;28;42737;-78
2021/08/22 00:53:49;;;;;;;1.60;1.40;;;;;;;20.63;65.43;98886.06;5054240;28;41323;-77
2021/08/22 00:56:17;;;;;;;1.53;1.43;;;;;;;20.65;65.95;98884.03;5071449;28;40016;-78
2021/08/22 00:58:45;;;;;;;2.83;1.63;;;;;;;20.66;65.96;98870.44;5071278;28;42997;-78
2021/08/22 01:01:16;;;;;;;2.00;1.73;;;;;;;20.66;65.83;98877.66;5075726;28;42622;-77
2021/08/22 01:03:50;;;;;;;1.47;1.37;;;;;;;20.65;66.37;98859.81;5091269;28;42202;-77
2021/08/22 01:06:29;;;;;;;1.50;1.40;;;;;;;20.65;66.62;98859.81;5107003;28;38771;-78
2021/08/22 01:09:01;;;;;;;2.27;1.60;;;;;;;20.66;66.44;98856.13;5090705;28;40580;-78
2021/08/22 01:11:32;;;;;;;1.60;1.50;;;;;;;20.69;66.45;98853.13;5072754;28;41708;-78
2021/08/22 01:14:04;;;;;;;1.83;1.57;;;;;;;20.72;66.10;98856.34;5069922;28;42420;-77
2021/08/22 01:16:35;;;;;;;1.20;1.10;;;;;;;20.73;66.17;98851.81;5073946;28;39059;-78
2021/08/22 01:19:13;;;;;;;1.80;1.70;;;;;;;20.74;66.55;98848.13;5091084;28;42822;-79
2021/08/22 01:21:43;;;;;;;1.87;1.53;;;;;;;20.73;66.67;98835.66;5089897;28;43008;-77
2021/08/22 01:24:11;;;;;;;1.67;1.57;;;;;;;20.73;66.45;98851.81;5089985;28;41227;-78
2021/08/22 01:26:40;;;;;;;1.70;1.60;;;;;;;20.70;66.46;98852.13;5091609;28;38959;-77
2021/08/22 01:29:08;;;;;;;1.40;1.13;;;;;;;20.70;66.11;98846.75;5068787;28;40699;-77
2021/08/22 01:31:40;;;;;;;1.30;1.20;;;;;;;20.67;66.73;98849.75;5069593;28;43213;-78
2021/08/22 01:34:09;;;;;;;3.13;2.37;;;;;;;20.62;67.35;98849.41;5069859;28;42262;-78
2021/08/22 01:36:39;;;;;;;1.67;1.33;;;;;;;20.60;67.11;98857.63;5106924;28;40184;-78
2021/08/22 01:39:08;;;;;;;1.50;1.10;;;;;;;20.61;67.08;98850.41;5089652;28;42818;-78
2021/08/22 01:41:36;;;;;;;1.83;1.53;;;;;;;20.56;67.22;98844.66;5090430;28;42849;-79
2021/08/22 01:44:05;;;;;;;1.67;1.43;;;;;;;20.60;67.67;98854.94;5062922;28;42480;-79
2021/08/22 01:46:34;;;;;;;1.10;1.00;;;;;;;20.60;67.86;98862.16;5070224;28;40872;-78
2021/08/22 01:49:04;;;;;;;2.07;1.87;;;;;;;20.57;68.25;98852.56;5069028;28;42260;-78
2021/08/22 01:51:33;;;;;;;1.30;1.20;;;;;;;20.54;67.99;98862.78;5070091;28;42636;-78
2021/08/22 01:54:03;;;;;;;1.63;1.37;;;;;;;20.49;67.94;98852.53;5074733;28;43259;-79
2021/08/22 01:56:31;;;;;;;1.50;1.40;;;;;;;20.32;68.35;98838.06;5073525;28;38898;-78
2021/08/22 01:58:59;;;;;;;1.83;1.37;;;;;;;20.40;68.71;98865.06;5089923;28;42762;-78
2021/08/22 02:01:27;;;;;;;1.50;1.27;;;;;;;20.40;69.06;98867.75;5072848;28;42196;-77
2021/08/22 02:04:02;;;;;;;1.43;1.33;;;;;;;20.29;69.24;98854.53;5074620;28;42339;-78
2021/08/22 02:06:37;;;;;;;1.20;1.10;;;;;;;20.15;69.58;98851.59;5069527;28;40376;-78
2021/08/22 02:09:08;;;;;;;1.67;1.57;;;;;;;20.30;70.41;98893.03;5068682;28;40630;-79
2021/08/22 02:11:41;;;;;;;1.37;1.20;;;;;;;20.29;70.46;98896.72;5069144;28;42897;-78
2021/08/22 02:14:09;;;;;;;1.37;1.07;;;;;;;20.28;70.74;98890.50;5084283;28;42359;-79
2021/08/22 02:16:38;;;;;;;2.03;1.83;;;;;;;20.24;71.02;98870.31;5090146;28;40685;-78
2021/08/22 02:19:06;;;;;;;1.33;1.27;;;;;;;20.28;70.83;98885.09;5106024;28;40602;-79
2021/08/22 02:21:35;;;;;;;1.87;1.53;;;;;;;20.29;70.63;98876.03;5102496;28;42881;-79
2021/08/22 02:24:03;;;;;;;1.87;1.70;;;;;;;20.30;71.08;98875.03;5052600;28;41397;-79
2021/08/22 02:26:31;;;;;;;1.70;1.37;;;;;;;20.32;71.18;98874.88;5068445;28;40737;-78
2021/08/22 02:29:00;;;;;;;1.83;1.40;;;;;;;20.31;71.01;98879.44;5077853;28;42045;-78
2021/08/22 02:31:29;;;;;;;2.00;1.30;;;;;;;20.33;71.83;98874.75;5072870;28;42949;-79
2021/08/22 02:33:59;;;;;;;1.50;1.17;;;;;;;20.29;71.37;98881.41;5088543;28;41543;-79
2021/08/22 02:36:27;;;;;;;1.83;1.60;;;;;;;20.27;72.09;98875.38;5122887;27;40084;-77
2021/08/22 02:38:57;;;;;;;1.17;1.07;;;;;;;20.22;71.63;98890.28;5067218;28;42105;-78
2021/08/22 02:41:24;;;;;;;1.43;1.33;;;;;;;20.18;71.90;98900.50;5068581;28;41858;-78
2021/08/22 02:43:54;;;;;;;1.37;1.23;;;;;;;20.08;72.31;98894.38;5073102;28;41735;-78
2021/08/22 02:46:23;;;;;;;1.33;1.23;;;;;;;20.09;72.09;98906.81;5071819;28;39964;-78
2021/08/22 02:48:50;;;;;;;1.33;1.10;;;;;;;19.96;73.10;98882.16;5106154;28;40555;-78
2021/08/22 02:51:18;;;;;;;1.37;1.27;;;;;;;20.00;72.98;98884.41;5090142;28;43854;-79
2021/08/22 02:53:45;;;;;;;1.27;1.13;;;;;;;19.99;73.09;98857.66;5089835;28;41068;-79
2021/08/22 02:56:14;;;;;;;1.83;1.13;;;;;;;19.95;74.56;98829.41;5068419;28;40202;-78
2021/08/22 02:58:42;;;;;;;1.60;1.50;;;;;;;19.91;74.86;98833.38;5067715;28;41759;-79
2021/08/22 03:01:09;;;;;;;1.33;1.13;;;;;;;19.89;74.44;98852.38;5076123;28;43071;-79
2021/08/22 03:03:36;;;;;;;1.40;1.30;;;;;;;19.87;74.88;98864.28;5071642;28;41120;-79
2021/08/22 03:06:04;;;;;;;1.07;0.97;;;;;;;19.63;74.44;98819.22;5088458;28;39952;-78
2021/08/22 03:08:32;;;;;;;1.13;1.03;;;;;;;19.87;74.21;98859.75;5087579;28;41557;-79
2021/08/22 03:10:59;;;;;;;1.03;0.87;;;;;;;19.82;74.56;98853.97;5069620;28;43847;-78
2021/08/22 03:13:28;;;;;;;0.97;0.90;;;;;;;19.78;74.28;98857.16;5067421;28;43152;-79
2021/08/22 03:15:56;;;;;;;1.00;0.90;;;;;;;19.79;74.65;98862.34;5069277;28;39977;-80
2021/08/22 03:18:24;;;;;;;1.20;1.10;;;;;;;19.80;74.37;98863.19;5067850;28;40747;-79
2021/08/22 03:20:51;;;;;;;1.10;0.70;;;;;;;19.77;74.13;98852.78;5067288;28;44028;-78
2021/08/22 03:23:19;;;;;;;1.10;1.00;;;;;;;19.89;74.30;98862.28;5076690;28;42326;-78
2021/08/22 03:25:46;;;;;;;0.80;0.80;;;;;;;19.90;74.22;98861.28;5087920;28;38896;-79
2021/08/22 03:28:14;;;;;;;1.43;1.33;;;;;;;19.92;74.10;98862.81;5119532;27;42720;-79
2021/08/22 03:30:43;;;;;;;0.83;0.83;;;;;;;19.96;74.00;98863.34;5067993;28;42960;-78
2021/08/22 03:33:10;;;;;;;0.80;0.80;;;;;;;19.98;74.29;98869.41;5068287;28;42277;-77
2021/08/22 03:35:38;;;;;;;0.80;0.80;;;;;;;20.00;73.88;98872.81;5068799;28;39764;-78
2021/08/22 03:38:05;;;;;;;1.10;1.10;;;;;;;20.02;73.73;98862.75;5067466;28;42623;-79
2021/08/22 03:40:32;;;;;;;1.47;1.37;;;;;;;20.07;73.84;98865.78;5066868;28;43889;-79
2021/08/22 03:43:00;;;;;;;1.60;1.20;;;;;;;20.09;73.81;98858.41;5067408;28;42424;-78
2021/08/22 03:45:28;;;;;;;1.27;1.20;;;;;;;20.14;73.70;98864.19;5068583;28;41348;-78
2021/08/22 03:47:57;;;;;;;1.30;1.20;;;;;;;20.19;73.13;98869.91;5068143;28;41775;-78
2021/08/22 03:50:24;;;;;;;1.27;1.00;;;;;;;20.22;73.26;98864.22;5050568;28;41242;-77
2021/08/22 03:52:52;;;;;;;2.63;1.20;;;;;;;20.24;73.35;98869.47;5067749;28;41637;-78
2021/08/22 03:55:20;;;;;;;1.20;1.07;;;;;;;20.25;73.34;98874.69;5050953;28;38845;-78
2021/08/22 03:57:48;;;;;;;1.10;1.00;;;;;;;20.27;73.28;98870.00;5068914;28;41751;-78
2021/08/22 04:00:16;;;;;;;1.03;1.03;;;;;;;20.26;73.03;98864.78;5066876;28;41791;-78
2021/08/22 04:02:44;;;;;;;0.80;0.80;;;;;;;20.25;73.40;98861.25;5069294;28;41026;-78
2021/08/22 04:05:33;;;;;;;0.97;0.97;;;;;;;20.24;73.01;98867.63;5059776;28;38786;-78
2021/08/22 04:08:01;;;;;;;1.03;0.90;;;;;;;20.22;73.03;98869.63;5108464;28;40643;-79
2021/08/22 04:10:29;;;;;;;1.10;1.00;;;;;;;20.06;73.22;98847.97;5074527;28;42068;-78
2021/08/22 04:12:57;;;;;;;0.87;0.80;;;;;;;20.16;73.24;98864.00;5090267;28;42458;-78
2021/08/22 04:15:25;;;;;;;1.37;0.93;;;;;;;20.16;73.38;98856.78;5090455;28;38935;-78
2021/08/22 04:17:52;;;;;;;1.27;1.17;;;;;;;20.15;73.72;98873.09;5108143;28;40855;-78
2021/08/22 04:20:20;;;;;;;0.67;0.67;;;;;;;20.13;73.54;98865.19;5092000;28;42898;-78
2021/08/22 04:22:49;;;;;;;1.20;1.10;;;;;;;20.12;73.55;98863.50;5082024;28;42037;-78
2021/08/22 04:25:16;;;;;;;0.80;0.80;;;;;;;20.12;73.88;98868.88;5070171;28;40664;-78
2021/08/22 04:27:44;;;;;;;1.03;0.90;;;;;;;20.10;74.03;98865.47;5054012;28;40930;-78
2021/08/22 04:30:13;;;;;;;1.37;1.00;;;;;;;20.10;73.81;98862.78;5052805;28;42662;-78
2021/08/22 04:32:41;;;;;;;1.00;1.00;;;;;;;20.11;73.57;98856.41;5070332;28;42500;-79
2021/08/22 04:35:09;;;;;;;1.43;1.10;;;;;;;20.11;73.88;98853.72;5070343;28;40176;-77
2021/08/22 04:37:37;;;;;;;0.80;0.80;;;;;;;20.12;73.67;98852.75;5070594;28;42244;-78
2021/08/22 04:40:08;;;;;;;0.80;0.80;;;;;;;20.15;73.72;98855.13;5069855;28;43156;-78
2021/08/22 04:42:36;;;;;;;0.67;0.67;;;;;;;20.15;73.71;98855.13;5085880;28;42995;-79
2021/08/22 04:45:04;;;;;;;0.90;0.90;;;;;;;20.09;73.81;98847.66;5090438;28;40058;-80
2021/08/22 04:47:31;;;;;;;1.80;1.47;;;;;;;20.13;74.12;98858.97;5089926;28;41966;-77
2021/08/22 04:49:58;;;;;;;0.80;0.80;;;;;;;20.11;74.06;98848.34;5071766;28;43098;-79
2021/08/22 04:52:26;;;;;;;1.10;1.00;;;;;;;20.12;73.84;98858.13;5070361;28;42550;-78
2021/08/22 04:54:54;;;;;;;1.20;0.90;;;;;;;20.16;73.70;98864.84;5054429;28;38749;-78
2021/08/22 04:57:23;;;;;;;0.90;0.90;;;;;;;20.19;73.59;98853.78;5080323;28;42041;-78
2021/08/22 04:59:50;;;;;;;1.23;1.10;;;;;;;20.21;73.62;98854.47;5089683;28;43678;-78
2021/08/22 05:02:17;;;;;;;1.40;0.70;;;;;;;20.24;73.71;98859.56;5073774;28;42170;-78
2021/08/22 05:04:45;;;;;;;1.57;1.37;;;;;;;20.25;73.74;98850.47;5107422;28;40028;-78
2021/08/22 05:07:12;;;;;;;0.73;0.73;;;;;;;20.25;73.32;98852.31;5123628;27;42683;-79
2021/08/22 05:09:40;;;;;;;1.47;0.80;;;;;;;20.24;73.51;98850.63;5110724;27;42528;-78
2021/08/22 05:12:08;;;;;;;1.80;1.40;;;;;;;20.22;73.31;98858.84;5069794;28;42523;-79
2021/08/22 05:14:37;;;;;;;1.63;1.10;;;;;;;20.21;72.83;98859.84;5051860;28;41092;-78
2021/08/22 05:17:05;;;;;;;0.80;0.73;;;;;;;20.21;72.92;98862.53;5068929;28;42696;-78
2021/08/22 05:19:33;;;;;;;1.50;1.00;;;;;;;20.23;73.42;98860.56;5052801;28;41645;-78
2021/08/22 05:22:02;;;;;;;1.33;1.23;;;;;;;20.26;73.22;98862.94;5052923;28;42121;-78
2021/08/22 05:24:30;;;;;;;1.20;1.07;;;;;;;20.34;73.00;98862.97;5052915;28;38609;-78
2021/08/22 05:26:57;;;;;;;1.30;0.90;;;;;;;20.40;72.89;98865.06;5070280;28;41936;-78
2021/08/22 05:29:25;;;;;;;1.60;1.50;;;;;;;20.46;72.80;98865.44;5070137;28;42819;-78
2021/08/22 05:31:54;;;;;;;0.70;0.70;;;;;;;20.50;72.69;98856.06;5069303;28;43275;-78
2021/08/22 05:34:21;;;;;;;1.40;1.30;;;;;;;20.52;72.51;98859.44;5052803;28;39450;-78
2021/08/22 05:36:49;;;;;;;0.90;0.90;;;;;;;20.57;72.22;98868.72;5052806;28;40938;-78
2021/08/22 05:39:16;;;;;;;1.20;1.10;;;;;;;20.64;72.09;98869.78;5081748;28;43823;-79
2021/08/22 05:41:44;;;;;;;0.97;0.83;;;;;;;20.67;72.10;98874.81;5106877;28;42520;-78
2021/08/22 05:44:11;;;;;;;1.57;1.30;;;;;;;20.69;71.83;98872.81;5072962;28;39278;-78
2021/08/22 05:46:39;;;;;;;1.00;0.90;;;;;;;20.70;71.70;98874.50;5088784;28;41795;-78
2021/08/22 05:49:08;;;;;;;1.10;0.97;;;;;;;20.71;71.62;98870.81;5070264;28;44027;-79
2021/08/22 05:51:35;;;;;;;1.17;0.80;;;;;;;20.76;71.66;98879.28;5068762;28;42431;-78
2021/08/22 05:54:03;;;;;;;1.07;1.00;;;;;;;20.83;71.50;98874.06;5075614;28;40900;-79
2021/08/22 05:56:31;;;;;;;0.60;0.60;;;;;;;20.93;71.16;98880.19;5089929;28;41685;-78
2021/08/22 05:58:58;;;;;;;1.37;1.10;;;;;;;21.02;71.25;98879.19;5073257;28;41823;-78
2021/08/22 06:01:26;;;;;;;1.37;1.00;;;;;;;21.09;70.35;98880.25;5086223;28;43041;-78
2021/08/22 06:03:53;;;;;;;1.17;1.07;;;;;;;21.15;70.36;98887.69;5068917;28;41227;-78
2021/08/22 06:06:22;;;;;;;0.80;0.80;;;;;;;21.12;69.96;98863.78;5069156;28;42456;-79
2021/08/22 06:08:49;;;;;;;1.10;1.00;;;;;;;21.29;69.56;98880.03;5069037;28;41873;-79
2021/08/22 06:11:17;;;;;;;1.40;0.97;;;;;;;21.38;69.21;98889.84;5051153;28;41464;-78
2021/08/22 06:13:44;;;;;;;0.93;0.93;;;;;;;21.50;69.11;98893.91;5069635;28;40771;-79
2021/08/22 06:16:12;;;;;;;1.00;0.93;;;;;;;21.58;68.97;98891.22;5080756;28;41735;-79
2021/08/22 06:18:39;;;;;;;0.70;0.70;;;;;;;21.70;68.58;98900.69;5068346;28;43220;-79
2021/08/22 06:21:07;;;;;;;0.63;0.60;;;;;;;21.80;68.03;98893.28;5051730;28;41344;-79
2021/08/22 06:23:36;;;;;;;1.00;0.90;;;;;;;21.94;67.62;98893.66;5070221;28;40323;-79
2021/08/22 06:26:03;;;;;;;1.03;0.93;;;;;;;22.06;66.70;98895.03;5068983;28;41700;-79
2021/08/22 06:28:31;;;;;;;2.47;0.73;;;;;;;22.26;66.55;98900.94;5069916;28;43692;-80
2021/08/22 06:30:58;;;;;;;0.87;0.77;;;;;;;22.52;66.10;98899.75;5070685;28;43098;-79
2021/08/22 06:33:26;;;;;;;1.07;0.83;;;;;;;22.71;65.82;98898.53;5069227;28;41021;-80
2021/08/22 06:35:59;;;;;;;1.13;0.80;;;;;;;22.84;65.50;98908.84;5068298;28;42030;-79
2021/08/22 06:38:27;;;;;;;1.47;1.03;;;;;;;22.93;64.22;98905.94;5068569;28;42734;-79
2021/08/22 06:40:56;;;;;;;0.87;0.83;;;;;;;22.95;64.33;98897.66;5068855;28;43242;-79
2021/08/22 06:43:24;;;;;;;0.90;0.70;;;;;;;22.99;63.78;98901.72;5052390;28;38952;-79
2021/08/22 06:45:51;;;;;;;1.30;1.10;;;;;;;23.10;63.83;98906.75;5069083;28;42756;-80
2021/08/22 06:48:19;;;;;;;0.80;0.80;;;;;;;23.09;63.93;98910.47;5069015;28;42631;-79
2021/08/22 06:50:47;;;;;;;1.13;0.90;;;;;;;23.13;63.75;98906.38;5069247;28;42534;-79
2021/08/22 06:53:15;;;;;;;1.60;0.80;;;;;;;23.20;63.74;98907.38;5068667;28;41921;-80
2021/08/22 06:55:43;;;;;;;0.70;0.60;;;;;;;23.29;63.75;98906.31;5068383;28;41934;-79
2021/08/22 06:58:12;;;;;;;0.97;0.90;;;;;;;23.45;63.19;98907.28;5068027;28;41685;-79
2021/08/22 07:00:39;;;;;;;1.47;1.20;;;;;;;23.69;63.16;98912.56;5052244;28;41456;-79
2021/08/22 07:03:08;;;;;;;0.87;0.73;;;;;;;24.03;62.12;98914.88;5050916;28;38825;-79
2021/08/22 07:05:35;;;;;;;0.97;0.80;;;;;;;24.35;61.34;98919.25;5051644;28;42026;-80
2021/08/22 07:08:03;;;;;;;0.70;0.70;;;;;;;24.63;60.08;98911.38;5070058;28;42765;-79
2021/08/22 07:10:30;;;;;;;1.30;0.97;;;;;;;24.74;59.85;98918.19;5067401;28;41579;-79
2021/08/22 07:12:58;;;;;;;1.17;1.00;;;;;;;24.89;59.31;98917.19;5068978;28;38865;-80
2021/08/22 07:15:27;;;;;;;1.80;1.10;;;;;;;25.06;59.02;98917.91;5050441;28;40570;-79
2021/08/22 07:17:56;;;;;;;0.90;0.80;;;;;;;25.18;58.84;98916.41;5066947;28;43647;-80
2021/08/22 07:20:24;;;;;;;0.93;0.80;;;;;;;25.33;58.24;98929.97;5068868;28;42993;-80
2021/08/22 07:22:52;;;;;;;1.30;1.20;;;;;;;25.49;58.04;98935.16;5068802;28;40317;-79
2021/08/22 07:25:21;;;;;;;0.77;0.73;;;;;;;25.42;57.84;98924.25;5051053;28;41598;-79
2021/08/22 07:27:49;;;;;;;0.83;0.80;;;;;;;25.44;57.99;98942.19;5052626;28;43003;-80
2021/08/22 07:30:16;;;;;;;0.97;0.90;;;;;;;25.28;57.83;98938.66;5066099;28;41231;-79
2021/08/22 07:32:45;;;;;;;1.67;0.97;;;;;;;25.09;58.16;98938.38;5050881;28;39030;-79
2021/08/22 07:35:13;;;;;;;0.80;0.80;;;;;;;25.03;57.57;98962.47;5051389;28;40743;-80
2021/08/22 07:37:41;;;;;;;1.20;0.73;;;;;;;24.69;58.12;98926.91;5067901;28;43043;-79
2021/08/22 07:40:09;;;;;;;1.47;1.37;;;;;;;24.84;57.87;98959.44;5082596;28;41209;-80
2021/08/22 07:42:37;;;;;;;1.30;1.00;;;;;;;24.64;57.84;98930.13;5088187;28;40970;-79
2021/08/22 07:45:05;;;;;;;1.43;0.90;;;;;;;25.08;57.48;98969.22;5088976;28;42134;-80
2021/08/22 07:47:33;;;;;;;1.77;1.37;;;;;;;25.17;56.90;98963.50;5100499;28;43024;-79
2021/08/22 07:50:02;;;;;;;1.57;1.23;;;;;;;25.34;56.76;98956.88;5111500;28;42234;-79
2021/08/22 07:52:30;;;;;;;1.30;1.20;;;;;;;25.59;56.49;98968.25;5110168;28;41673;-80
2021/08/22 07:54:57;;;;;;;1.33;1.00;;;;;;;25.97;55.77;98966.25;5109714;28;42208;-79
2021/08/22 07:57:26;;;;;;;1.83;1.37;;;;;;;26.40;55.07;98967.16;5125582;28;41930;-80
2021/08/22 07:59:53;;;;;;;1.83;1.27;;;;;;;26.82;53.46;98977.16;5090028;28;40882;-79
2021/08/22 08:02:21;;;;;;;1.17;1.10;;;;;;;27.17;52.80;98979.94;5088462;28;39809;-79
2021/08/22 08:04:51;;;;;;;1.20;1.10;;;;;;;27.58;53.01;98976.44;5079014;28;42280;-76
2021/08/22 08:07:19;;;;;;;0.90;0.80;;;;;;;27.59;52.78;98983.56;5080032;28;42879;-76
2021/08/22 08:09:47;;;;;;;1.63;1.10;;;;;;;27.54;52.96;98982.28;5089839;28;42372;-78
2021/08/22 08:12:14;;;;;;;1.67;1.57;;;;;;;27.56;52.12;98984.81;5090046;28;40192;-78
2021/08/22 08:14:42;;;;;;;2.20;1.20;;;;;;;27.50;52.06;98983.69;5104452;27;42756;-80
2021/08/22 08:17:10;;;;;;;1.30;1.20;;;;;;;27.34;52.34;98975.84;5069582;28;42779;-81
2021/08/22 08:19:37;;;;;;;0.90;0.90;;;;;;;27.28;51.74;98987.56;5068907;28;43396;-81
2021/08/22 08:22:07;;;;;;;0.70;0.70;;;;;;;27.32;51.53;98983.41;5072239;28;39989;-80
2021/08/22 08:24:36;;;;;;;1.27;1.10;;;;;;;27.58;51.17;98981.88;5088973;28;42685;-77
2021/08/22 08:27:04;;;;;;;0.93;0.83;;;;;;;27.81;51.53;98976.97;5089082;28;42800;-78
2021/08/22 08:29:31;;;;;;;1.20;1.10;;;;;;;27.90;51.09;98943.09;5087924;28;42333;-79
2021/08/22 08:31:59;;;;;;;2.87;1.50;;;;;;;28.50;49.21;98987.66;5085822;28;40056;-80
2021/08/22 08:34:26;;;;;;;1.50;1.40;;;;;;;28.85;47.37;99008.28;5050058;28;40786;-80
2021/08/22 08:36:55;;;;;;;2.20;1.40;;;;;;;28.97;48.00;98994.84;5066855;28;41809;-80
2021/08/22 08:39:22;;;;;;;1.10;1.00;;;;;;;29.13;47.58;98999.03;5067841;28;42273;-80
2021/08/22 08:41:51;;;;;;;1.10;1.00;;;;;;;29.20;47.21;98988.94;5076901;28;39998;-80
2021/08/22 08:44:19;;;;;;;1.30;1.10;;;;;;;29.67;46.47;99011.56;5087906;28;41818;-80
2021/08/22 08:46:48;;;;;;;1.63;1.00;;;;;;;29.71;45.75;99004.59;5121382;27;43103;-81
2021/08/22 08:49:16;;;;;;;1.40;1.30;;;;;;;29.54;46.01;99010.56;5070353;28;41354;-80
2021/08/22 08:51:57;;;;;;;1.50;1.20;;;;;;;29.45;46.28;99014.53;5082686;28;38959;-80
2021/08/22 08:54:29;;;;;;;1.20;1.10;;;;;;;29.46;46.55;99010.75;5070924;28;41550;-79
2021/08/22 08:56:58;;;;;;;1.23;0.93;;;;;;;29.38;46.27;99010.16;5070152;28;43715;-79
2021/08/22 08:59:26;;;;;;;1.53;1.10;;;;;;;29.30;46.06;99013.94;5070398;28;42491;-80
2021/08/22 09:01:55;;;;;;;1.27;1.17;;;;;;;29.17;46.46;99006.59;5088015;28;40893;-81
2021/08/22 09:04:29;;;;;;;1.17;1.03;;;;;;;28.95;47.20;99005.97;5092040;28;42024;-81
2021/08/22 09:07:48;;;;;;;1.33;1.10;;;;;;;28.62;47.91;99012.41;5082061;28;43069;-81
2021/08/22 09:10:53;;;;;;;1.20;1.10;;;;;;;28.21;48.97;98988.84;5070767;28;42116;-79
2021/08/22 09:14:14;;;;;;;1.30;1.20;;;;;;;27.83;49.00;98996.66;5069751;28;39922;-79
2021/08/22 09:17:19;;;;;;;1.73;1.40;;;;;;;27.67;48.97;99000.56;4969674;28;42344;-81
2021/08/22 09:20:25;;;;;;;1.33;1.10;;;;;;;27.59;49.73;98994.44;5065666;28;42200;-82
2021/08/22 09:23:30;;;;;;;1.43;1.33;;;;;;;27.49;49.61;99006.50;5066794;28;41543;-79
2021/08/22 09:26:37;;;;;;;2.40;1.40;;;;;;;27.40;50.18;98996.84;5083699;28;41209;-79
2021/08/22 09:29:42;;;;;;;1.17;1.07;;;;;;;27.27;49.90;99002.19;5075079;28;41900;-80
2021/08/22 09:32:45;;;;;;;1.53;1.20;;;;;;;27.17;50.59;98993.53;5089722;28;43724;-80
2021/08/22 09:35:50;;;;;;;2.20;1.20;;;;;;;27.21;50.78;98996.69;5091104;28;43000;-80
2021/08/22 09:38:57;;;;;;;1.27;1.17;;;;;;;27.14;50.46;98997.50;5073366;28;40033;-79
2021/08/22 09:42:12;;;;;;;1.23;1.10;;;;;;;27.21;50.76;98991.25;5070127;28;41978;-79
2021/08/22 09:45:22;;;;;;;1.40;1.30;;;;;;;27.34;50.39;98997.63;5067440;28;41567;-79
2021/08/22 09:48:27;;;;;;;1.53;1.33;;;;;;;27.43;50.17;98980.13;5086365;28;41193;-81
2021/08/22 09:51:34;;;;;;;1.20;1.10;;;;;;;27.64;49.88;98987.38;5090106;28;40964;-79
2021/08/22 09:54:39;;;;;;;1.20;1.10;;;;;;;27.81;49.60;98994.16;5052197;28;41397;-82
2021/08/22 09:57:57;;;;;;;1.70;1.20;;;;;;;27.83;49.34;99000.22;5068616;28;43181;-80
2021/08/22 10:00:47;;;;;;;1.20;1.10;;;;;;;27.80;49.70;99002.53;5069872;28;42459;-80
2021/08/22 10:03:52;;;;;;;1.30;1.20;;;;;;;27.75;49.42;99000.41;5025000;28;38874;-81
2021/08/22 10:07:08;;;;;;;1.80;1.30;;;;;;;27.72;49.21;98991.78;5069590;28;42733;-80
2021/08/22 10:09:40;;;;;;;0.83;0.83;;;;;;;27.69;49.24;98994.94;4991411;28;42848;-80
2021/08/22 10:12:08;;;;;;;1.30;1.20;;;;;;;27.65;49.68;98999.09;5036545;28;42228;-79
2021/08/22 10:14:38;;;;;;;1.97;1.27;;;;;;;27.59;49.60;98978.13;5067624;28;42358;-78
2021/08/22 10:17:08;;;;;;;1.17;1.00;;;;;;;27.53;49.54;98980.59;5100348;28;41741;-79
2021/08/22 10:19:35;;;;;;;1.70;1.60;;;;;;;27.37;49.98;98986.34;5068188;28;43940;-77
2021/08/22 10:22:12;;;;;;;1.33;1.23;;;;;;;27.16;50.74;98983.69;5066944;28;42283;-77
2021/08/22 10:24:52;;;;;;;1.30;1.20;;;;;;;26.92;50.87;98986.84;5067117;28;41386;-77
2021/08/22 10:27:50;;;;;;;1.60;1.47;;;;;;;26.71;51.48;98988.53;5050787;28;40577;-77
2021/08/22 10:30:22;;;;;;;1.63;1.53;;;;;;;26.60;51.58;98986.34;5065129;28;42883;-80
2021/08/22 10:33:25;;;;;;;1.63;1.23;;;;;;;26.43;52.05;98971.38;5051523;28;41310;-78
2021/08/22 10:36:29;;;;;;;1.83;1.40;;;;;;;26.19;52.29;98974.44;5067595;28;40213;-79
2021/08/22 10:39:27;;;;;;;1.47;1.33;;;;;;;25.98;53.15;98967.94;5067541;28;42723;-78
2021/08/22 10:41:56;;;;;;;1.30;1.20;;;;;;;25.85;53.21;98973.19;5067171;28;43229;-78
2021/08/22 10:44:40;;;;;;;1.80;1.47;;;;;;;25.64;54.00;98965.00;5069217;28;43036;-79
2021/08/22 10:47:08;;;;;;;1.23;1.00;;;;;;;25.29;56.27;98958.47;5065204;28;40099;-79
2021/08/22 10:49:59;;;;;;;1.77;1.47;;;;;;;24.75;59.18;98936.97;5050797;28;40728;-78
2021/08/22 10:52:28;;;;;;;1.30;1.20;;;;;;;24.31;59.79;98939.56;5049019;28;41749;-78
2021/08/22 10:55:32;;;;;;;1.30;1.20;;;;;;;24.17;61.55;98941.16;5068094;28;42603;-79
2021/08/22 10:58:00;;;;;;;1.67;1.57;;;;;;;24.16;61.35;98949.47;5066922;28;40893;-79
2021/08/22 11:00:30;;;;;;;1.57;1.20;;;;;;;24.37;60.99;98957.78;5067381;28;40900;-78
2021/08/22 11:02:59;;;;;;;1.90;1.70;;;;;;;24.63;60.07;98962.81;5116023;27;43321;-78
2021/08/22 11:05:29;;;;;;;1.43;1.30;;;;;;;24.74;59.97;98953.41;5071493;28;42615;-79
2021/08/22 11:08:11;;;;;;;1.47;1.33;;;;;;;24.81;60.01;98965.22;5068624;28;38973;-78
2021/08/22 11:10:40;;;;;;;1.60;1.23;;;;;;;24.77;60.25;98972.00;5052034;28;40988;-80
2021/08/22 11:13:07;;;;;;;1.37;1.27;;;;;;;24.78;59.95;98968.28;5063609;28;43926;-78
2021/08/22 11:15:35;;;;;;;1.87;1.60;;;;;;;24.63;59.57;98939.28;5062938;28;41404;-78
2021/08/22 11:18:03;;;;;;;1.70;1.60;;;;;;;24.88;59.01;98956.16;5069134;28;40296;-80
2021/08/22 11:20:32;;;;;;;1.50;1.30;;;;;;;24.83;57.73;98938.78;5067755;28;41781;-78
2021/08/22 11:23:05;;;;;;;1.40;1.23;;;;;;;25.09;58.45;98955.47;5088242;28;43083;-78
2021/08/22 11:25:33;;;;;;;1.20;1.10;;;;;;;25.21;57.54;98954.00;5083370;28;42200;-79
2021/08/22 11:28:09;;;;;;;1.67;1.47;;;;;;;25.32;57.49;98945.38;5050995;28;40237;-79
2021/08/22 11:30:37;;;;;;;1.40;1.30;;;;;;;25.44;56.94;98953.88;5060635;28;41535;-78
2021/08/22 11:33:07;;;;;;;1.40;1.30;;;;;;;25.50;56.18;98957.69;5070428;28;20231;-79
2021/08/22 11:35:37;;;;;;;1.93;1.47;;;;;;;25.55;55.98;98960.69;5068035;28;42216;-78
2021/08/22 11:38:06;;;;;;;1.33;1.23;;;;;;;25.57;55.91;98950.50;5066375;28;40937;-78
2021/08/22 11:40:35;;;;;;;1.23;1.03;;;;;;;25.54;55.50;98945.44;5075286;28;40787;-79
2021/08/22 11:43:05;;;;;;;1.40;1.27;;;;;;;25.57;55.61;98942.38;5121597;27;43415;-81
2021/08/22 11:45:35;;;;;;;1.47;1.20;;;;;;;25.55;55.36;98933.56;5058318;28;41541;-78
2021/08/22 11:48:04;;;;;;;1.00;1.00;;;;;;;25.52;55.42;98939.38;5053328;28;39432;-78
2021/08/22 11:50:34;;;;;;;1.13;0.90;;;;;;;25.44;55.54;98948.47;5049727;28;42105;-78
2021/08/22 11:53:05;;;;;;;1.63;1.40;;;;;;;25.37;55.09;98948.34;5066018;28;43848;-78
2021/08/22 11:55:35;;;;;;;1.33;1.17;;;;;;;25.30;55.86;98936.59;5092041;28;41654;-78
2021/08/22 11:58:10;;;;;;;1.37;1.03;;;;;;;25.30;56.34;98939.31;5070588;28;39331;-78